sensor_id;sensor_type;location;lat;lon;timestamp;pressure;altitude;pressure_sealevel;temperature;humidity
33422;BME280;19763;55.798;37.782;2023-02-02T00:01:34;147343.69;;;0.06;84.93
33422;BME280;19763;55.798;37.782;2023-02-02T00:04:00;147369.13;;;0.16;84.72
33422;BME280;19763;55.798;37.782;2023-02-02T00:06:27;147336.06;;;0.03;85.00
33422;BME280;19763;55.798;37.782;2023-02-02T00:08:55;147357.69;;;0.12;85.01
33422;BME280;19763;55.798;37.782;2023-02-02T00:11:21;147385.66;;;0.23;85.19
33422;BME280;19763;55.798;37.782;2023-02-02T00:13:47;147409.84;;;0.33;84.36
33422;BME280;19763;55.798;37.782;2023-02-02T00:18:55;147442.88;;;0.46;83.87
33422;BME280;19763;55.798;37.782;2023-02-02T00:21:21;147440.31;;;0.45;83.82
33422;BME280;19763;55.798;37.782;2023-02-02T00:23:47;147347.50;;;0.08;84.76
33422;BME280;19763;55.798;37.782;2023-02-02T00:26:13;147381.84;;;0.22;84.42
33422;BME280;19763;55.798;37.782;2023-02-02T00:28:39;147324.59;;;-0.02;84.71
33422;BME280;19763;55.798;37.782;2023-02-02T00:31:05;147351.31;;;0.09;84.41
33422;BME280;19763;55.798;37.782;2023-02-02T00:33:30;147361.50;;;0.13;84.31
33422;BME280;19763;55.798;37.782;2023-02-02T00:35:56;147374.22;;;0.19;84.57
33422;BME280;19763;55.798;37.782;2023-02-02T00:38:21;147333.53;;;0.02;84.31
33422;BME280;19763;55.798;37.782;2023-02-02T00:40:47;147362.75;;;0.14;84.29
33422;BME280;19763;55.798;37.782;2023-02-02T00:43:13;147351.31;;;0.09;84.45
33422;BME280;19763;55.798;37.782;2023-02-02T00:45:38;147290.31;;;-0.15;84.41
33422;BME280;19763;55.798;37.782;2023-02-02T00:48:04;147343.69;;;0.06;84.85
33422;BME280;19763;55.798;37.782;2023-02-02T00:50:30;147367.88;;;0.16;84.35
33422;BME280;19763;55.798;37.782;2023-02-02T00:52:56;147420.00;;;0.37;83.90
33422;BME280;19763;55.798;37.782;2023-02-02T00:55:24;147399.66;;;0.29;83.91
33422;BME280;19763;55.798;37.782;2023-02-02T00:57:51;147404.72;;;0.31;83.75
33422;BME280;19763;55.798;37.782;2023-02-02T01:00:22;147380.56;;;0.21;83.42
33422;BME280;19763;55.798;37.782;2023-02-02T01:02:52;147408.53;;;0.32;83.83
33422;BME280;19763;55.798;37.782;2023-02-02T01:05:19;147402.16;;;0.30;82.75
33422;BME280;19763;55.798;37.782;2023-02-02T01:07:45;147380.56;;;0.21;83.27
33422;BME280;19763;55.798;37.782;2023-02-02T01:10:16;147413.66;;;0.34;82.14
33422;BME280;19763;55.798;37.782;2023-02-02T01:12:42;147327.16;;;-0.01;82.56
33422;BME280;19763;55.798;37.782;2023-02-02T01:15:10;147380.56;;;0.21;82.59
33422;BME280;19763;55.798;37.782;2023-02-02T01:17:36;147369.13;;;0.16;81.46
33422;BME280;19763;55.798;37.782;2023-02-02T01:20:02;147341.16;;;0.05;81.00
33422;BME280;19763;55.798;37.782;2023-02-02T01:22:28;147341.16;;;0.05;80.15
33422;BME280;19763;55.798;37.782;2023-02-02T01:24:54;147355.13;;;0.11;79.93
33422;BME280;19763;55.798;37.782;2023-02-02T01:27:20;147360.25;;;0.13;80.12
33422;BME280;19763;55.798;37.782;2023-02-02T01:29:45;147407.28;;;0.32;80.93
33422;BME280;19763;55.798;37.782;2023-02-02T01:32:11;147394.53;;;0.27;80.64
33422;BME280;19763;55.798;37.782;2023-02-02T01:34:36;147350.06;;;0.09;79.32
33422;BME280;19763;55.798;37.782;2023-02-02T01:37:07;147350.06;;;0.09;79.13
33422;BME280;19763;55.798;37.782;2023-02-02T01:39:32;147353.88;;;0.10;79.50
33422;BME280;19763;55.798;37.782;2023-02-02T01:41:58;147347.50;;;0.08;79.39
33422;BME280;19763;55.798;37.782;2023-02-02T01:47:33;147371.69;;;0.17;79.58
33422;BME280;19763;55.798;37.782;2023-02-02T01:50:01;147348.75;;;0.08;78.63
33422;BME280;19763;55.798;37.782;2023-02-02T01:52:29;147369.13;;;0.16;79.56
33422;BME280;19763;55.798;37.782;2023-02-02T01:54:59;147336.06;;;0.03;80.00
33422;BME280;19763;55.798;37.782;2023-02-02T01:57:36;147257.25;;;-0.29;80.48
33422;BME280;19763;55.798;37.782;2023-02-02T02:00:07;147343.69;;;0.06;80.21
33422;BME280;19763;55.798;37.782;2023-02-02T02:02:33;147350.06;;;0.09;79.82
33422;BME280;19763;55.798;37.782;2023-02-02T02:05:00;147309.38;;;-0.08;80.45
33422;BME280;19763;55.798;37.782;2023-02-02T02:07:28;147304.31;;;-0.10;80.56
33422;BME280;19763;55.798;37.782;2023-02-02T02:09:54;147333.53;;;0.02;79.85
33422;BME280;19763;55.798;37.782;2023-02-02T02:12:20;147364.06;;;0.14;80.07
33422;BME280;19763;55.798;37.782;2023-02-02T02:14:47;147305.56;;;-0.09;79.81
33422;BME280;19763;55.798;37.782;2023-02-02T02:17:56;147372.94;;;0.18;79.78
33422;BME280;19763;55.798;37.782;2023-02-02T02:24:08;147369.13;;;0.16;80.28
33422;BME280;19763;55.798;37.782;2023-02-02T02:36:14;147333.53;;;0.02;79.67
33422;BME280;19763;55.798;37.782;2023-02-02T02:39:27;147336.06;;;0.03;80.49
33422;BME280;19763;55.798;37.782;2023-02-02T02:42:00;147375.47;;;0.19;80.93
33422;BME280;19763;55.798;37.782;2023-02-02T02:44:29;147334.78;;;0.03;81.10
33422;BME280;19763;55.798;37.782;2023-02-02T02:46:56;147366.56;;;0.15;79.87
33422;BME280;19763;55.798;37.782;2023-02-02T02:49:21;147369.13;;;0.16;79.77
33422;BME280;19763;55.798;37.782;2023-02-02T02:51:51;147305.56;;;-0.09;80.19
33422;BME280;19763;55.798;37.782;2023-02-02T02:54:32;147305.56;;;-0.09;80.27
33422;BME280;19763;55.798;37.782;2023-02-02T02:57:27;147323.34;;;-0.02;79.53
33422;BME280;19763;55.798;37.782;2023-02-02T03:05:55;147264.84;;;-0.26;79.89
33422;BME280;19763;55.798;37.782;2023-02-02T03:08:32;147306.81;;;-0.09;79.33
33422;BME280;19763;55.798;37.782;2023-02-02T03:11:01;147277.59;;;-0.21;78.93
33422;BME280;19763;55.798;37.782;2023-02-02T03:13:30;147297.94;;;-0.12;78.55
33422;BME280;19763;55.798;37.782;2023-02-02T03:15:56;147353.88;;;0.10;78.27
33422;BME280;19763;55.798;37.782;2023-02-02T03:18:25;147318.28;;;-0.04;78.13
33422;BME280;19763;55.798;37.782;2023-02-02T03:20:52;147374.22;;;0.19;77.87
33422;BME280;19763;55.798;37.782;2023-02-02T03:23:17;147328.47;;;0.00;76.90
33422;BME280;19763;55.798;37.782;2023-02-02T03:25:44;147320.78;;;-0.03;76.85
33422;BME280;19763;55.798;37.782;2023-02-02T03:28:09;147332.28;;;0.02;77.70
33422;BME280;19763;55.798;37.782;2023-02-02T03:30:36;147360.25;;;0.13;77.80
33422;BME280;19763;55.798;37.782;2023-02-02T03:33:03;147367.88;;;0.16;77.28
33422;BME280;19763;55.798;37.782;2023-02-02T03:35:29;147296.63;;;-0.13;78.51
33422;BME280;19763;55.798;37.782;2023-02-02T03:37:55;147313.16;;;-0.06;78.71
33422;BME280;19763;55.798;37.782;2023-02-02T03:40:21;147330.97;;;0.01;79.21
33422;BME280;19763;55.798;37.782;2023-02-02T03:42:46;147343.69;;;0.06;79.41
33422;BME280;19763;55.798;37.782;2023-02-02T03:45:12;147361.50;;;0.13;78.96
33422;BME280;19763;55.798;37.782;2023-02-02T03:47:37;147372.94;;;0.18;79.11
33422;BME280;19763;55.798;37.782;2023-02-02T03:50:04;147394.53;;;0.27;79.40
33422;BME280;19763;55.798;37.782;2023-02-02T03:52:30;147395.84;;;0.27;78.84
33422;BME280;19763;55.798;37.782;2023-02-02T03:54:55;147417.47;;;0.36;79.16
33422;BME280;19763;55.798;37.782;2023-02-02T03:57:21;147409.84;;;0.33;79.00
33422;BME280;19763;55.798;37.782;2023-02-02T03:59:47;147370.38;;;0.17;79.22
33422;BME280;19763;55.798;37.782;2023-02-02T04:02:12;147325.91;;;-0.01;78.92
33422;BME280;19763;55.798;37.782;2023-02-02T04:04:38;147347.50;;;0.08;80.64
33422;BME280;19763;55.798;37.782;2023-02-02T04:07:03;147303.00;;;-0.10;81.45
33422;BME280;19763;55.798;37.782;2023-02-02T04:09:29;147299.19;;;-0.12;82.14
33422;BME280;19763;55.798;37.782;2023-02-02T04:11:54;147346.25;;;0.07;81.14
33422;BME280;19763;55.798;37.782;2023-02-02T04:14:20;147351.31;;;0.09;80.60
33422;BME280;19763;55.798;37.782;2023-02-02T04:16:46;147338.59;;;0.04;81.10
33422;BME280;19763;55.798;37.782;2023-02-02T04:19:11;147341.16;;;0.05;81.85
33422;BME280;19763;55.798;37.782;2023-02-02T04:21:38;147346.25;;;0.07;81.66
33422;BME280;19763;55.798;37.782;2023-02-02T04:24:05;147318.28;;;-0.04;81.02
33422;BME280;19763;55.798;37.782;2023-02-02T04:26:31;147285.19;;;-0.18;82.37
33422;BME280;19763;55.798;37.782;2023-02-02T04:28:56;147313.16;;;-0.06;81.46
33422;BME280;19763;55.798;37.782;2023-02-02T04:31:22;147226.78;;;-0.41;83.39
33422;BME280;19763;55.798;37.782;2023-02-02T04:33:47;147262.34;;;-0.27;82.82
33422;BME280;19763;55.798;37.782;2023-02-02T04:36:13;147261.03;;;-0.27;82.96
33422;BME280;19763;55.798;37.782;2023-02-02T04:38:39;147269.97;;;-0.24;82.72
33422;BME280;19763;55.798;37.782;2023-02-02T04:41:09;147238.19;;;-0.37;83.00
33422;BME280;19763;55.798;37.782;2023-02-02T04:43:35;147155.56;;;-0.70;83.07
33422;BME280;19763;55.798;37.782;2023-02-02T04:46:02;147186.09;;;-0.58;83.73
33422;BME280;19763;55.798;37.782;2023-02-02T04:48:27;147195.00;;;-0.54;83.34
33422;BME280;19763;55.798;37.782;2023-02-02T04:51:00;147198.81;;;-0.53;83.16
33422;BME280;19763;55.798;37.782;2023-02-02T04:53:27;147221.66;;;-0.43;82.89
33422;BME280;19763;55.798;37.782;2023-02-02T04:55:53;147243.25;;;-0.35;82.95
33422;BME280;19763;55.798;37.782;2023-02-02T04:58:19;147229.28;;;-0.40;83.22
33422;BME280;19763;55.798;37.782;2023-02-02T05:00:44;147271.22;;;-0.23;82.61
33422;BME280;19763;55.798;37.782;2023-02-02T05:03:10;147267.41;;;-0.25;81.76
33422;BME280;19763;55.798;37.782;2023-02-02T05:05:35;147193.69;;;-0.55;82.07
33422;BME280;19763;55.798;37.782;2023-02-02T05:08:01;147224.22;;;-0.42;83.04
33422;BME280;19763;55.798;37.782;2023-02-02T05:10:26;147217.84;;;-0.45;82.96
33422;BME280;19763;55.798;37.782;2023-02-02T05:12:53;147278.84;;;-0.20;82.77
33422;BME280;19763;55.798;37.782;2023-02-02T05:15:19;147245.81;;;-0.33;81.90
33422;BME280;19763;55.798;37.782;2023-02-02T05:17:46;147239.44;;;-0.36;81.80
33422;BME280;19763;55.798;37.782;2023-02-02T05:20:12;147238.19;;;-0.37;82.25
33422;BME280;19763;55.798;37.782;2023-02-02T05:22:37;147224.22;;;-0.42;83.10
33422;BME280;19763;55.798;37.782;2023-02-02T05:25:04;147192.44;;;-0.55;82.27
33422;BME280;19763;55.798;37.782;2023-02-02T05:27:30;147203.88;;;-0.50;83.18
33422;BME280;19763;55.798;37.782;2023-02-02T05:29:56;147200.06;;;-0.52;82.58
33422;BME280;19763;55.798;37.782;2023-02-02T05:32:21;147214.03;;;-0.46;82.51
33422;BME280;19763;55.798;37.782;2023-02-02T05:34:47;147201.31;;;-0.52;82.58
33422;BME280;19763;55.798;37.782;2023-02-02T05:37:13;147214.03;;;-0.46;82.64
33422;BME280;19763;55.798;37.782;2023-02-02T05:39:38;147206.44;;;-0.49;82.35
33422;BME280;19763;55.798;37.782;2023-02-02T05:42:04;147233.09;;;-0.39;81.74
33422;BME280;19763;55.798;37.782;2023-02-02T05:44:29;147219.09;;;-0.44;82.37
33422;BME280;19763;55.798;37.782;2023-02-02T05:46:55;147211.47;;;-0.47;81.82
33422;BME280;19763;55.798;37.782;2023-02-02T05:49:20;147238.19;;;-0.37;81.81
33422;BME280;19763;55.798;37.782;2023-02-02T05:51:47;147172.09;;;-0.63;82.12
33422;BME280;19763;55.798;37.782;2023-02-02T05:54:14;147183.53;;;-0.59;82.13
33422;BME280;19763;55.798;37.782;2023-02-02T05:56:46;147233.09;;;-0.39;81.73
33422;BME280;19763;55.798;37.782;2023-02-02T05:59:11;147239.44;;;-0.36;81.41
33422;BME280;19763;55.798;37.782;2023-02-02T06:01:37;147206.44;;;-0.49;81.57
33422;BME280;19763;55.798;37.782;2023-02-02T06:04:02;147245.81;;;-0.33;81.31
33422;BME280;19763;55.798;37.782;2023-02-02T06:06:28;147141.59;;;-0.76;81.67
33422;BME280;19763;55.798;37.782;2023-02-02T06:08:54;147219.09;;;-0.44;82.16
33422;BME280;19763;55.798;37.782;2023-02-02T06:11:19;147169.56;;;-0.64;81.55
33422;BME280;19763;55.798;37.782;2023-02-02T06:13:45;147170.84;;;-0.64;81.67
33422;BME280;19763;55.798;37.782;2023-02-02T06:16:10;147158.13;;;-0.69;82.18
33422;BME280;19763;55.798;37.782;2023-02-02T06:18:36;147191.13;;;-0.56;81.97
33422;BME280;19763;55.798;37.782;2023-02-02T06:21:04;147211.47;;;-0.47;81.67
33422;BME280;19763;55.798;37.782;2023-02-02T06:23:31;147243.25;;;-0.35;80.86
33422;BME280;19763;55.798;37.782;2023-02-02T06:25:57;147252.19;;;-0.31;80.58
33422;BME280;19763;55.798;37.782;2023-02-02T06:28:23;147198.81;;;-0.53;81.13
33422;BME280;19763;55.798;37.782;2023-02-02T06:30:49;147216.59;;;-0.45;81.68
33422;BME280;19763;55.798;37.782;2023-02-02T06:33:15;147197.50;;;-0.53;81.09
33422;BME280;19763;55.798;37.782;2023-02-02T06:35:40;147195.00;;;-0.54;82.16
33422;BME280;19763;55.798;37.782;2023-02-02T06:38:06;147206.44;;;-0.49;81.31
33422;BME280;19763;55.798;37.782;2023-02-02T06:40:31;147183.53;;;-0.59;81.15
33422;BME280;19763;55.798;37.782;2023-02-02T06:43:01;147231.81;;;-0.39;80.86
33422;BME280;19763;55.798;37.782;2023-02-02T06:45:28;147238.19;;;-0.37;80.20
33422;BME280;19763;55.798;37.782;2023-02-02T06:47:57;147192.44;;;-0.55;81.34
33422;BME280;19763;55.798;37.782;2023-02-02T06:50:25;147177.22;;;-0.61;81.10
33422;BME280;19763;55.798;37.782;2023-02-02T06:52:51;147222.97;;;-0.43;80.85
33422;BME280;19763;55.798;37.782;2023-02-02T06:55:18;147161.94;;;-0.67;81.93
33422;BME280;19763;55.798;37.782;2023-02-02T06:57:44;147211.47;;;-0.47;81.32
33422;BME280;19763;55.798;37.782;2023-02-02T07:00:11;147271.22;;;-0.23;80.96
33422;BME280;19763;55.798;37.782;2023-02-02T07:02:37;147249.63;;;-0.32;80.56
33422;BME280;19763;55.798;37.782;2023-02-02T07:05:04;147226.78;;;-0.41;80.10
33422;BME280;19763;55.798;37.782;2023-02-02T07:07:33;147229.28;;;-0.40;81.01
33422;BME280;19763;55.798;37.782;2023-02-02T07:09:59;147300.50;;;-0.11;80.04
33422;BME280;19763;55.798;37.782;2023-02-02T07:12:25;147316.97;;;-0.05;80.13
33422;BME280;19763;55.798;37.782;2023-02-02T07:14:52;147303.00;;;-0.10;80.04
33422;BME280;19763;55.798;37.782;2023-02-02T07:17:17;147250.88;;;-0.31;80.63
33422;BME280;19763;55.798;37.782;2023-02-02T07:19:43;147304.31;;;-0.10;79.63
33422;BME280;19763;55.798;37.782;2023-02-02T07:22:09;147304.31;;;-0.10;79.86
33422;BME280;19763;55.798;37.782;2023-02-02T07:24:34;147291.56;;;-0.15;80.43
33422;BME280;19763;55.798;37.782;2023-02-02T07:27:05;147238.19;;;-0.37;80.95
33422;BME280;19763;55.798;37.782;2023-02-02T07:29:30;147280.13;;;-0.20;80.44
33422;BME280;19763;55.798;37.782;2023-02-02T07:31:56;147229.28;;;-0.40;80.16
33422;BME280;19763;55.798;37.782;2023-02-02T07:34:22;147243.25;;;-0.35;79.68
33422;BME280;19763;55.798;37.782;2023-02-02T07:36:47;147262.34;;;-0.27;80.99
33422;BME280;19763;55.798;37.782;2023-02-02T07:39:13;147207.69;;;-0.49;80.19
33422;BME280;19763;55.798;37.782;2023-02-02T07:41:38;147275.03;;;-0.22;79.79
33422;BME280;19763;55.798;37.782;2023-02-02T07:44:05;147360.25;;;0.13;80.05
33422;BME280;19763;55.798;37.782;2023-02-02T07:46:31;147341.16;;;0.05;79.67
33422;BME280;19763;55.798;37.782;2023-02-02T07:48:57;147348.75;;;0.08;79.03
33422;BME280;19763;55.798;37.782;2023-02-02T07:51:24;147319.53;;;-0.04;80.08
33422;BME280;19763;55.798;37.782;2023-02-02T07:53:51;147343.69;;;0.06;79.50
33422;BME280;19763;55.798;37.782;2023-02-02T07:56:22;147374.22;;;0.19;79.28
33422;BME280;19763;55.798;37.782;2023-02-02T07:58:51;147325.91;;;-0.01;79.66
33422;BME280;19763;55.798;37.782;2023-02-02T08:01:17;147328.47;;;0.00;79.19
33422;BME280;19763;55.798;37.782;2023-02-02T08:03:44;147313.16;;;-0.06;80.78
33422;BME280;19763;55.798;37.782;2023-02-02T08:06:21;147305.56;;;-0.09;80.10
33422;BME280;19763;55.798;37.782;2023-02-02T08:08:47;147348.75;;;0.08;79.42
33422;BME280;19763;55.798;37.782;2023-02-02T08:11:15;147308.09;;;-0.08;79.55
33422;BME280;19763;55.798;37.782;2023-02-02T08:13:42;147356.38;;;0.11;79.50
33422;BME280;19763;55.798;37.782;2023-02-02T08:16:08;147330.97;;;0.01;79.48
33422;BME280;19763;55.798;37.782;2023-02-02T08:18:35;147319.53;;;-0.04;79.37
33422;BME280;19763;55.798;37.782;2023-02-02T08:21:02;147352.56;;;0.10;79.92
33422;BME280;19763;55.798;37.782;2023-02-02T08:23:28;147353.88;;;0.10;79.49
33422;BME280;19763;55.798;37.782;2023-02-02T08:26:03;147393.28;;;0.26;78.95
33422;BME280;19763;55.798;37.782;2023-02-02T08:28:29;147376.75;;;0.20;79.46
33422;BME280;19763;55.798;37.782;2023-02-02T08:30:55;147320.78;;;-0.03;79.02
33422;BME280;19763;55.798;37.782;2023-02-02T08:33:20;147280.13;;;-0.20;80.61
33422;BME280;19763;55.798;37.782;2023-02-02T08:35:46;147348.75;;;0.08;79.79
33422;BME280;19763;55.798;37.782;2023-02-02T08:38:12;147342.41;;;0.06;79.82
33422;BME280;19763;55.798;37.782;2023-02-02T08:40:37;147351.31;;;0.09;78.96
33422;BME280;19763;55.798;37.782;2023-02-02T08:43:03;147381.84;;;0.22;78.30
33422;BME280;19763;55.798;37.782;2023-02-02T08:45:30;147374.22;;;0.19;77.77
33422;BME280;19763;55.798;37.782;2023-02-02T08:47:55;147325.91;;;-0.01;79.21
33422;BME280;19763;55.798;37.782;2023-02-02T08:50:21;147325.91;;;-0.01;78.21
33422;BME280;19763;55.798;37.782;2023-02-02T08:52:47;147327.16;;;-0.01;77.91
33422;BME280;19763;55.798;37.782;2023-02-02T08:55:12;147392.03;;;0.26;78.68
33422;BME280;19763;55.798;37.782;2023-02-02T08:57:39;147351.31;;;0.09;78.31
33422;BME280;19763;55.798;37.782;2023-02-02T09:00:05;147292.81;;;-0.14;77.49
33422;BME280;19763;55.798;37.782;2023-02-02T09:02:31;147336.06;;;0.03;77.83
33422;BME280;19763;55.798;37.782;2023-02-02T09:04:57;147346.25;;;0.07;77.46
33422;BME280;19763;55.798;37.782;2023-02-02T09:07:22;147324.59;;;-0.02;77.17
33422;BME280;19763;55.798;37.782;2023-02-02T09:09:48;147381.84;;;0.22;77.66
33422;BME280;19763;55.798;37.782;2023-02-02T09:12:15;147351.31;;;0.09;77.08
33422;BME280;19763;55.798;37.782;2023-02-02T09:14:41;147395.84;;;0.27;76.48
33422;BME280;19763;55.798;37.782;2023-02-02T09:17:06;147445.44;;;0.47;75.92
33422;BME280;19763;55.798;37.782;2023-02-02T09:19:32;147412.34;;;0.34;75.50
33422;BME280;19763;55.798;37.782;2023-02-02T09:21:57;147397.09;;;0.28;76.53
33422;BME280;19763;55.798;37.782;2023-02-02T09:24:23;147413.66;;;0.34;76.36
33422;BME280;19763;55.798;37.782;2023-02-02T09:26:49;147472.13;;;0.58;75.95
33422;BME280;19763;55.798;37.782;2023-02-02T09:29:15;147506.47;;;0.72;76.05
33422;BME280;19763;55.798;37.782;2023-02-02T09:31:44;147464.50;;;0.55;74.88
33422;BME280;19763;55.798;37.782;2023-02-02T09:34:12;147445.44;;;0.47;75.13
33422;BME280;19763;55.798;37.782;2023-02-02T09:36:41;147414.91;;;0.35;74.99
33422;BME280;19763;55.798;37.782;2023-02-02T09:39:08;147483.59;;;0.63;75.03
33422;BME280;19763;55.798;37.782;2023-02-02T09:49:36;147523.03;;;0.79;73.33
33422;BME280;19763;55.798;37.782;2023-02-02T09:52:23;147481.06;;;0.62;73.31
33422;BME280;19763;55.798;37.782;2023-02-02T09:54:56;147535.72;;;0.84;73.27
33422;BME280;19763;55.798;37.782;2023-02-02T09:57:36;147493.75;;;0.67;73.04
33422;BME280;19763;55.798;37.782;2023-02-02T10:00:03;147509.03;;;0.73;73.06
33422;BME280;19763;55.798;37.782;2023-02-02T10:02:38;147484.88;;;0.63;73.54
33422;BME280;19763;55.798;37.782;2023-02-02T10:05:12;147455.63;;;0.51;73.32
33422;BME280;19763;55.798;37.782;2023-02-02T10:07:43;147510.28;;;0.74;73.49
33422;BME280;19763;55.798;37.782;2023-02-02T10:12:51;147416.16;;;0.36;74.40
33422;BME280;19763;55.798;37.782;2023-02-02T10:18:27;147407.28;;;0.32;75.16
33422;BME280;19763;55.798;37.782;2023-02-02T10:20:59;147417.47;;;0.36;74.34
33422;BME280;19763;55.798;37.782;2023-02-02T10:23:33;147486.13;;;0.64;74.23
33422;BME280;19763;55.798;37.782;2023-02-02T10:26:20;147487.41;;;0.64;73.67
33422;BME280;19763;55.798;37.782;2023-02-02T10:29:14;147525.59;;;0.80;73.36
33422;BME280;19763;55.798;37.782;2023-02-02T10:34:57;147530.66;;;0.82;73.05
33422;BME280;19763;55.798;37.782;2023-02-02T10:37:29;147567.53;;;0.97;72.74
33422;BME280;19763;55.798;37.782;2023-02-02T10:40:33;147544.66;;;0.88;72.64
33422;BME280;19763;55.798;37.782;2023-02-02T10:46:04;147500.09;;;0.69;72.96
33422;BME280;19763;55.798;37.782;2023-02-02T10:48:34;147562.47;;;0.95;72.34
33422;BME280;19763;55.798;37.782;2023-02-02T10:51:06;147507.72;;;0.73;72.01
33422;BME280;19763;55.798;37.782;2023-02-02T10:53:35;147467.06;;;0.56;72.93
33422;BME280;19763;55.798;37.782;2023-02-02T10:56:10;147473.44;;;0.59;72.39
33422;BME280;19763;55.798;37.782;2023-02-02T10:58:52;147472.13;;;0.58;72.83
33422;BME280;19763;55.798;37.782;2023-02-02T11:01:21;147530.66;;;0.82;72.08
33422;BME280;19763;55.798;37.782;2023-02-02T11:03:47;147565.03;;;0.96;72.11
33422;BME280;19763;55.798;37.782;2023-02-02T11:06:13;147561.22;;;0.94;71.57
33422;BME280;19763;55.798;37.782;2023-02-02T11:08:58;147576.47;;;1.00;72.09
33422;BME280;19763;55.798;37.782;2023-02-02T11:13:55;147600.66;;;1.10;71.01
33422;BME280;19763;55.798;37.782;2023-02-02T11:16:25;147533.22;;;0.83;71.04
33422;BME280;19763;55.798;37.782;2023-02-02T11:18:51;147594.28;;;1.08;71.33
33422;BME280;19763;55.798;37.782;2023-02-02T11:23:54;147475.94;;;0.60;71.32
33422;BME280;19763;55.798;37.782;2023-02-02T11:26:22;147563.72;;;0.95;70.85
33422;BME280;19763;55.798;37.782;2023-02-02T11:28:50;147520.47;;;0.78;71.11
33422;BME280;19763;55.798;37.782;2023-02-02T11:31:34;147496.28;;;0.68;70.53
33422;BME280;19763;55.798;37.782;2023-02-02T11:34:21;147530.66;;;0.82;70.54
33422;BME280;19763;55.798;37.782;2023-02-02T11:37:09;147591.72;;;1.07;70.35
33422;BME280;19763;55.798;37.782;2023-02-02T11:39:35;147565.03;;;0.96;70.93
33422;BME280;19763;55.798;37.782;2023-02-02T11:42:10;147617.22;;;1.17;70.84
33422;BME280;19763;55.798;37.782;2023-02-02T11:44:38;147609.53;;;1.14;69.39
33422;BME280;19763;55.798;37.782;2023-02-02T11:47:04;147562.47;;;0.95;69.46
33422;BME280;19763;55.798;37.782;2023-02-02T11:49:36;147600.66;;;1.10;69.81
33422;BME280;19763;55.798;37.782;2023-02-02T11:52:05;147646.47;;;1.29;69.91
33422;BME280;19763;55.798;37.782;2023-02-02T11:54:34;147629.91;;;1.22;69.95
33422;BME280;19763;55.798;37.782;2023-02-02T11:57:02;147678.28;;;1.42;69.11
33422;BME280;19763;55.798;37.782;2023-02-02T11:59:36;147628.66;;;1.22;69.62
33422;BME280;19763;55.798;37.782;2023-02-02T12:04:47;147635.03;;;1.24;70.53
33422;BME280;19763;55.798;37.782;2023-02-02T12:07:28;147613.34;;;1.15;70.36
33422;BME280;19763;55.798;37.782;2023-02-02T12:09:58;147614.66;;;1.16;69.98
33422;BME280;19763;55.798;37.782;2023-02-02T12:12:37;147590.47;;;1.06;70.85
33422;BME280;19763;55.798;37.782;2023-02-02T12:15:22;147645.16;;;1.28;71.02
33422;BME280;19763;55.798;37.782;2023-02-02T12:17:55;147603.19;;;1.11;70.81
33422;BME280;19763;55.798;37.782;2023-02-02T12:21:09;147581.53;;;1.02;71.23
33422;BME280;19763;55.798;37.782;2023-02-02T12:23:33;147573.91;;;0.99;71.78
33422;BME280;19763;55.798;37.782;2023-02-02T12:51:28;147579.03;;;1.01;71.22
33422;BME280;19763;55.798;37.782;2023-02-02T12:59:29;147477.25;;;0.60;72.71
33422;BME280;19763;55.798;37.782;2023-02-02T13:07:33;147358.94;;;0.12;73.21
33422;BME280;19763;55.798;37.782;2023-02-02T13:12:27;147421.25;;;0.38;72.96
33422;BME280;19763;55.798;37.782;2023-02-02T13:15:04;147413.66;;;0.34;73.27
33422;BME280;19763;55.798;37.782;2023-02-02T13:17:41;147441.63;;;0.46;73.33
33422;BME280;19763;55.798;37.782;2023-02-02T13:20:47;147437.81;;;0.44;72.80
33422;BME280;19763;55.798;37.782;2023-02-02T13:23:41;147409.84;;;0.33;73.52
33422;BME280;19763;55.798;37.782;2023-02-02T13:26:17;147407.28;;;0.32;73.16
33422;BME280;19763;55.798;37.782;2023-02-02T13:28:55;147496.28;;;0.68;73.18
33422;BME280;19763;55.798;37.782;2023-02-02T13:36:47;147398.34;;;0.28;74.18
33422;BME280;19763;55.798;37.782;2023-02-02T13:39:32;147385.66;;;0.23;74.76
33422;BME280;19763;55.798;37.782;2023-02-02T13:41:59;147384.38;;;0.23;74.71
33422;BME280;19763;55.798;37.782;2023-02-02T13:44:34;147390.72;;;0.25;74.95
33422;BME280;19763;55.798;37.782;2023-02-02T13:47:20;147374.22;;;0.19;74.18
33422;BME280;19763;55.798;37.782;2023-02-02T13:49:53;147371.69;;;0.17;75.11
33422;BME280;19763;55.798;37.782;2023-02-02T13:52:46;147417.47;;;0.36;74.74
33422;BME280;19763;55.798;37.782;2023-02-02T13:55:37;147397.09;;;0.28;74.84
33422;BME280;19763;55.798;37.782;2023-02-02T14:00:52;147400.91;;;0.29;75.43
33422;BME280;19763;55.798;37.782;2023-02-02T14:06:13;147422.53;;;0.38;75.22
33422;BME280;19763;55.798;37.782;2023-02-02T14:08:56;147440.31;;;0.45;75.48
33422;BME280;19763;55.798;37.782;2023-02-02T14:14:19;147450.50;;;0.49;74.52
33422;BME280;19763;55.798;37.782;2023-02-02T14:19:54;147356.38;;;0.11;76.01
33422;BME280;19763;55.798;37.782;2023-02-02T14:22:48;147358.94;;;0.12;75.91
33422;BME280;19763;55.798;37.782;2023-02-02T14:28:12;147341.16;;;0.05;76.47
33422;BME280;19763;55.798;37.782;2023-02-02T14:30:38;147418.72;;;0.37;76.85
33422;BME280;19763;55.798;37.782;2023-02-02T14:35:54;147412.34;;;0.34;76.61
33422;BME280;19763;55.798;37.782;2023-02-02T14:44:21;147386.91;;;0.24;76.48
33422;BME280;19763;55.798;37.782;2023-02-02T14:46:47;147386.91;;;0.24;77.24
33422;BME280;19763;55.798;37.782;2023-02-02T14:49:18;147428.88;;;0.41;76.71
33422;BME280;19763;55.798;37.782;2023-02-02T14:51:50;147416.16;;;0.36;76.98
33422;BME280;19763;55.798;37.782;2023-02-02T14:54:43;147364.06;;;0.14;77.31
33422;BME280;19763;55.798;37.782;2023-02-02T14:57:25;147407.28;;;0.32;76.97